createdAt,value
2022-11-01T00:01:15.136Z,100.00
2022-11-01T00:03:44.207Z,100.00
2022-11-01T00:06:13.895Z,100.00
2022-11-01T00:08:42.488Z,100.00
2022-11-01T00:11:14.199Z,100.00
2022-11-01T00:13:42.594Z,100.00
2022-11-01T00:16:11.027Z,100.00
2022-11-01T00:18:40.155Z,100.00
2022-11-01T00:21:08.479Z,100.00
2022-11-01T00:23:38.576Z,100.00
2022-11-01T00:26:07.299Z,100.00
2022-11-01T00:28:36.046Z,100.00
2022-11-01T00:31:07.645Z,100.00
2022-11-01T00:33:39.397Z,100.00
2022-11-01T00:36:08.827Z,100.00
2022-11-01T00:38:38.709Z,100.00
2022-11-01T00:41:07.518Z,100.00
2022-11-01T00:43:36.754Z,100.00
2022-11-01T00:46:05.983Z,100.00
2022-11-01T00:48:34.338Z,100.00
2022-11-01T00:51:02.708Z,100.00
2022-11-01T00:53:31.009Z,100.00
2022-11-01T00:56:02.992Z,100.00
2022-11-01T00:58:31.364Z,100.00
2022-11-01T01:00:59.815Z,100.00
2022-11-01T01:03:29.148Z,100.00
2022-11-01T01:05:57.794Z,100.00
2022-11-01T01:08:26.885Z,100.00
2022-11-01T01:10:55.374Z,100.00
2022-11-01T01:13:25.247Z,100.00
2022-11-01T01:15:53.549Z,100.00
2022-11-01T01:18:21.868Z,100.00
2022-11-01T01:20:50.402Z,100.00
2022-11-01T01:23:18.808Z,100.00
2022-11-01T01:25:47.114Z,100.00
2022-11-01T01:28:15.542Z,100.00
2022-11-01T01:30:45.247Z,100.00
2022-11-01T01:33:13.629Z,100.00
2022-11-01T01:35:41.950Z,100.00
2022-11-01T01:38:11.079Z,100.00
2022-11-01T01:40:39.471Z,100.00
2022-11-01T01:43:11.007Z,100.00
2022-11-01T01:45:41.078Z,100.00
2022-11-01T01:48:16.123Z,100.00
2022-11-01T01:50:49.378Z,100.00
2022-11-01T01:53:21.271Z,100.00
2022-11-01T01:55:53.821Z,100.00
2022-11-01T01:58:25.481Z,100.00
2022-11-01T02:00:55.442Z,100.00
2022-11-01T02:03:28.527Z,100.00
2022-11-01T02:06:00.324Z,100.00
2022-11-01T02:08:29.123Z,100.00
2022-11-01T02:10:59.842Z,100.00
2022-11-01T02:13:28.675Z,100.00
2022-11-01T02:16:24.092Z,100.00
2022-11-01T02:19:02.264Z,100.00
2022-11-01T02:21:44.781Z,100.00
2022-11-01T02:24:52.073Z,100.00
2022-11-01T02:27:25.498Z,100.00
2022-11-01T02:30:18.474Z,100.00
2022-11-01T02:33:02.159Z,100.00
2022-11-01T02:35:41.720Z,100.00
2022-11-01T02:38:12.157Z,100.00
2022-11-01T02:40:48.375Z,100.00
2022-11-01T02:43:20.134Z,100.00
2022-11-01T02:45:50.769Z,100.00
2022-11-01T02:48:23.258Z,100.00
2022-11-01T02:50:56.347Z,100.00
2022-11-01T02:53:24.904Z,100.00
2022-11-01T02:55:53.808Z,100.00
2022-11-01T02:58:25.055Z,100.00
2022-11-01T03:00:53.524Z,100.00
2022-11-01T03:03:25.409Z,100.00
2022-11-01T03:06:02.465Z,100.00
2022-11-01T03:08:33.473Z,100.00
2022-11-01T03:11:06.920Z,100.00
2022-11-01T03:13:59.098Z,100.00
2022-11-01T03:16:32.217Z,100.00
2022-11-01T03:19:10.499Z,100.00
2022-11-01T03:21:41.612Z,100.00
2022-11-01T03:24:17.992Z,100.00
2022-11-01T03:26:47.359Z,100.00
2022-11-01T03:29:17.391Z,100.00
2022-11-01T03:31:46.103Z,100.00
2022-11-01T03:34:17.622Z,100.00
2022-11-01T03:36:49.687Z,100.00
2022-11-01T03:39:21.649Z,100.00
2022-11-01T03:41:53.201Z,100.00
2022-11-01T03:44:21.595Z,100.00
2022-11-01T03:46:51.069Z,100.00
2022-11-01T03:49:21.467Z,100.00
2022-11-01T03:51:49.823Z,100.00
2022-11-01T03:54:18.065Z,100.00
2022-11-01T03:56:47.259Z,100.00
2022-11-01T03:59:15.743Z,100.00
2022-11-01T04:01:44.165Z,100.00
2022-11-01T04:04:12.714Z,100.00
2022-11-01T04:06:42.600Z,100.00
2022-11-01T04:09:11.114Z,100.00
2022-11-01T04:11:39.518Z,100.00
2022-11-01T04:14:25.130Z,100.00
2022-11-01T04:17:10.897Z,100.00
2022-11-01T04:19:56.325Z,100.00
2022-11-01T04:22:26.903Z,100.00
2022-11-01T04:24:56.219Z,100.00
2022-11-01T04:27:24.612Z,100.00
2022-11-01T04:29:52.983Z,100.00
2022-11-01T04:32:21.266Z,100.00
2022-11-01T04:34:49.535Z,100.00
2022-11-01T04:37:17.846Z,100.00
2022-11-01T04:39:47.614Z,100.00
2022-11-01T04:42:15.977Z,100.00
2022-11-01T04:44:46.871Z,100.00
2022-11-01T04:47:15.228Z,100.00
2022-11-01T04:49:43.524Z,100.00
2022-11-01T04:52:11.812Z,100.00
2022-11-01T04:54:40.068Z,100.00
2022-11-01T04:57:22.739Z,100.00
2022-11-01T04:59:51.237Z,100.00
2022-11-01T05:02:19.909Z,100.00
2022-11-01T05:04:48.262Z,100.00
2022-11-01T05:07:16.681Z,100.00
2022-11-01T05:09:44.985Z,100.00
2022-11-01T05:12:14.795Z,100.00
2022-11-01T05:14:43.333Z,100.00
2022-11-01T05:17:11.834Z,100.00
2022-11-01T05:20:06.337Z,100.00
2022-11-01T05:22:34.625Z,100.00
2022-11-01T05:25:05.473Z,100.00
2022-11-01T05:27:35.116Z,100.00
2022-11-01T05:30:05.295Z,100.00
2022-11-01T05:32:35.875Z,100.00
2022-11-01T05:35:06.524Z,100.00
2022-11-01T05:37:35.993Z,100.00
2022-11-01T05:40:04.877Z,100.00
2022-11-01T05:42:35.899Z,100.00
2022-11-01T05:45:06.148Z,100.00
2022-11-01T05:47:34.690Z,100.00
2022-11-01T05:50:03.049Z,100.00
2022-11-01T05:52:31.739Z,100.00
2022-11-01T05:55:00.747Z,100.00
2022-11-01T05:57:33.553Z,100.00
2022-11-01T06:00:04.510Z,100.00
2022-11-01T06:02:40.504Z,100.00
2022-11-01T06:05:10.058Z,100.00
2022-11-01T06:07:38.622Z,100.00
2022-11-01T06:10:07.998Z,100.00
2022-11-01T06:12:38.790Z,100.00
2022-11-01T06:15:11.834Z,100.00
2022-11-01T06:17:40.379Z,100.00
2022-11-01T06:20:10.529Z,100.00
2022-11-01T06:22:38.912Z,100.00
2022-11-01T06:25:08.309Z,100.00
2022-11-01T06:27:36.754Z,100.00
2022-11-01T06:30:05.586Z,100.00
2022-11-01T06:32:35.288Z,100.00
2022-11-01T06:35:03.509Z,100.00
2022-11-01T06:37:32.229Z,100.00
2022-11-01T06:40:01.151Z,100.00
2022-11-01T06:42:29.422Z,100.00
2022-11-01T06:44:57.722Z,100.00
2022-11-01T06:47:26.057Z,100.00
2022-11-01T06:49:55.777Z,100.00
2022-11-01T06:52:24.022Z,100.00
2022-11-01T06:54:52.399Z,100.00
2022-11-01T06:57:20.731Z,100.00
2022-11-01T06:59:49.056Z,100.00
2022-11-01T07:02:19.698Z,100.00
2022-11-01T07:04:48.563Z,100.00
2022-11-01T07:07:18.416Z,100.00
2022-11-01T07:09:46.706Z,100.00
2022-11-01T07:12:15.368Z,100.00
2022-11-01T07:14:43.911Z,100.00
2022-11-01T07:17:12.405Z,100.00
2022-11-01T07:19:43.943Z,100.00
2022-11-01T07:22:12.256Z,100.00
2022-11-01T07:24:42.096Z,100.00
2022-11-01T07:27:10.536Z,100.00
2022-11-01T07:29:40.538Z,100.00
2022-11-01T07:32:08.875Z,100.00
2022-11-01T07:34:37.163Z,100.00
2022-11-01T07:37:06.840Z,100.00
2022-11-01T07:39:35.469Z,100.00
2022-11-01T07:42:05.296Z,100.00
2022-11-01T07:44:33.558Z,100.00
2022-11-01T07:47:01.824Z,100.00
2022-11-01T07:49:30.125Z,100.00
2022-11-01T07:52:02.654Z,100.00
2022-11-01T07:54:31.303Z,100.00
2022-11-01T07:56:59.577Z,100.00
2022-11-01T07:59:29.322Z,100.00
2022-11-01T08:01:57.674Z,100.00
2022-11-01T08:04:26.206Z,100.00
2022-11-01T08:06:54.432Z,100.00
2022-11-01T08:09:23.315Z,100.00
2022-11-01T08:11:51.867Z,100.00
2022-11-01T08:14:20.310Z,100.00
2022-11-01T08:16:55.713Z,100.00
2022-11-01T08:19:24.615Z,100.00
2022-11-01T08:21:52.908Z,100.00
2022-11-01T08:24:21.208Z,100.00
2022-11-01T08:26:49.825Z,100.00
2022-11-01T08:29:18.192Z,100.00
2022-11-01T08:31:47.650Z,100.00
2022-11-01T08:34:17.352Z,100.00
2022-11-01T08:36:45.686Z,100.00
2022-11-01T08:39:13.946Z,100.00
2022-11-01T08:41:42.581Z,100.00
2022-11-01T08:44:11.524Z,100.00
2022-11-01T08:46:43.113Z,100.00
2022-11-01T08:49:11.506Z,100.00
2022-11-01T08:51:41.546Z,100.00
2022-11-01T08:54:12.285Z,100.00
2022-11-01T08:56:40.573Z,100.00
2022-11-01T08:59:09.267Z,100.00
2022-11-01T09:01:38.788Z,100.00
2022-11-01T09:04:07.636Z,100.00
2022-11-01T09:06:36.501Z,100.00
2022-11-01T09:09:06.492Z,100.00
2022-11-01T09:11:34.786Z,100.00
2022-11-01T09:14:03.179Z,100.00
2022-11-01T09:16:32.822Z,100.00
2022-11-01T09:19:02.026Z,100.00
2022-11-01T09:21:32.060Z,100.00
2022-11-01T09:24:02.805Z,100.00
2022-11-01T09:26:32.544Z,100.00
2022-11-01T09:29:00.850Z,100.00
2022-11-01T09:31:29.824Z,100.00
2022-11-01T09:33:58.818Z,100.00
2022-11-01T09:36:28.662Z,100.00
2022-11-01T09:38:59.389Z,100.00
2022-11-01T09:41:34.259Z,100.00
2022-11-01T09:44:04.847Z,100.00
2022-11-01T09:46:38.445Z,100.00
2022-11-01T09:49:07.441Z,100.00
2022-11-01T09:51:36.252Z,100.00
2022-11-01T09:54:04.536Z,100.00
2022-11-01T09:56:40.621Z,100.00
2022-11-01T09:59:18.667Z,100.00
2022-11-01T10:01:54.170Z,100.00
2022-11-01T10:04:40.579Z,100.00
2022-11-01T10:07:13.842Z,100.00
2022-11-01T10:09:47.880Z,100.00
2022-11-01T10:12:26.731Z,100.00
2022-11-01T10:15:03.050Z,100.00
2022-11-01T10:17:52.427Z,100.00
2022-11-01T10:20:24.214Z,100.00
2022-11-01T10:22:52.640Z,100.00
2022-11-01T10:25:25.181Z,100.00
2022-11-01T10:28:05.673Z,100.00
2022-11-01T10:30:37.984Z,100.00
2022-11-01T10:33:26.001Z,100.00
2022-11-01T10:35:59.201Z,100.00
2022-11-01T10:39:10.409Z,100.00
2022-11-01T10:41:31.181Z,100.00
2022-11-01T10:44:05.079Z,100.00
2022-11-01T10:46:40.055Z,100.00
2022-11-01T10:49:18.189Z,100.00
2022-11-01T10:51:46.699Z,100.00
2022-11-01T10:54:19.330Z,100.00
2022-11-01T10:56:49.507Z,100.00
2022-11-01T10:59:21.927Z,100.00
2022-11-01T11:01:52.174Z,100.00
2022-11-01T11:04:22.833Z,100.00
2022-11-01T11:06:51.558Z,100.00
2022-11-01T11:09:24.678Z,100.00
2022-11-01T11:11:55.208Z,100.00
2022-11-01T11:14:26.261Z,100.00
2022-11-01T11:16:57.458Z,100.00
2022-11-01T11:19:33.714Z,100.00
2022-11-01T11:22:03.451Z,100.00
2022-11-01T11:24:35.683Z,100.00
2022-11-01T11:27:05.763Z,100.00
2022-11-01T11:29:39.333Z,100.00
2022-11-01T11:32:14.842Z,100.00
2022-11-01T11:34:44.627Z,100.00
2022-11-01T11:37:21.541Z,100.00
2022-11-01T11:40:03.524Z,91.93
2022-11-01T11:42:33.259Z,84.39
2022-11-01T11:45:17.006Z,80.85
2022-11-01T11:47:47.058Z,81.05
2022-11-01T11:50:26.004Z,76.79
2022-11-01T11:52:59.160Z,80.57
2022-11-01T11:55:29.555Z,75.77
2022-11-01T12:01:00.545Z,71.99
2022-11-01T12:03:29.536Z,69.11
2022-11-01T12:06:01.096Z,67.05
2022-11-01T12:08:38.989Z,66.56
2022-11-01T12:11:07.832Z,66.72
2022-11-01T12:13:38.442Z,69.03
2022-11-01T12:16:24.652Z,67.96
2022-11-01T12:18:58.614Z,66.26
2022-11-01T12:21:29.733Z,66.50
2022-11-01T12:24:02.117Z,67.48
2022-11-01T12:26:32.989Z,67.63
2022-11-01T12:29:19.096Z,64.50
2022-11-01T12:31:49.564Z,65.35
2022-11-01T12:34:22.030Z,62.88
2022-11-01T12:36:55.684Z,59.00
2022-11-01T12:39:36.983Z,55.04
2022-11-01T12:42:06.208Z,56.95
2022-11-01T12:44:37.409Z,56.31
2022-11-01T12:47:10.954Z,57.83
2022-11-01T12:49:46.131Z,56.98
2022-11-01T12:52:21.606Z,57.64
2022-11-01T12:54:58.948Z,60.32
2022-11-01T12:57:27.368Z,62.50
2022-11-01T12:59:55.866Z,64.60
2022-11-01T13:02:33.727Z,64.67
2022-11-01T13:05:06.122Z,65.13
2022-11-01T13:07:44.158Z,68.64
2022-11-01T13:10:19.918Z,68.56
2022-11-01T13:12:54.007Z,70.20
2022-11-01T13:15:28.293Z,72.34
2022-11-01T13:18:05.905Z,70.84
2022-11-01T13:20:45.198Z,72.63
2022-11-01T13:23:20.061Z,74.25
2022-11-01T13:25:53.280Z,74.66
2022-11-01T13:28:51.016Z,80.05
2022-11-01T13:31:30.323Z,87.74
2022-11-01T13:34:09.998Z,82.35
2022-11-01T13:36:40.362Z,83.43
2022-11-01T13:39:19.504Z,80.47
2022-11-01T13:41:53.779Z,83.81
2022-11-01T13:44:24.651Z,85.12
2022-11-01T13:47:21.406Z,87.21
2022-11-01T13:50:35.122Z,89.18
2022-11-01T13:53:05.937Z,90.92
2022-11-01T13:55:38.151Z,92.48
2022-11-01T13:58:07.203Z,95.79
2022-11-01T14:00:44.465Z,97.79
2022-11-01T14:03:26.846Z,100.00
2022-11-01T14:06:30.757Z,100.00
2022-11-01T14:09:31.812Z,100.00
2022-11-01T14:12:11.609Z,100.00
2022-11-01T14:14:53.402Z,100.00
2022-11-01T14:18:03.249Z,100.00
2022-11-01T14:20:52.768Z,100.00
2022-11-01T14:24:02.719Z,100.00
2022-11-01T14:27:05.109Z,100.00
2022-11-01T14:29:36.656Z,100.00
2022-11-01T14:32:05.337Z,100.00
2022-11-01T14:34:36.231Z,100.00
2022-11-01T14:37:14.013Z,100.00
2022-11-01T14:39:47.336Z,100.00
2022-11-01T14:42:20.885Z,100.00
2022-11-01T14:44:51.575Z,100.00
2022-11-01T14:47:27.137Z,100.00
2022-11-01T14:49:58.509Z,100.00
2022-11-01T14:52:32.373Z,100.00
2022-11-01T14:55:08.043Z,100.00
2022-11-01T14:57:36.908Z,100.00
2022-11-01T15:00:30.854Z,100.00
2022-11-01T15:03:01.523Z,100.00
2022-11-01T15:05:31.536Z,100.00
2022-11-01T15:08:00.859Z,100.00
2022-11-01T15:10:42.353Z,100.00
2022-11-01T15:13:15.614Z,100.00
2022-11-01T15:15:45.400Z,100.00
2022-11-01T15:18:17.229Z,100.00
2022-11-01T15:20:49.500Z,100.00
2022-11-01T15:23:21.253Z,100.00
2022-11-01T15:25:54.135Z,100.00
2022-11-01T15:28:24.166Z,100.00
2022-11-01T15:30:56.675Z,100.00
2022-11-01T15:33:28.054Z,100.00
2022-11-01T15:35:58.085Z,100.00
2022-11-01T15:38:27.389Z,100.00
2022-11-01T15:40:57.173Z,100.00
2022-11-01T15:43:27.962Z,100.00
2022-11-01T15:45:57.692Z,100.00
2022-11-01T15:48:27.595Z,100.00
2022-11-01T15:50:58.262Z,100.00
2022-11-01T15:53:29.992Z,100.00
2022-11-01T15:56:02.764Z,100.00
2022-11-01T15:58:36.086Z,100.00
2022-11-01T16:01:11.070Z,100.00
2022-11-01T16:03:42.644Z,100.00
2022-11-01T16:06:16.181Z,100.00
2022-11-01T16:08:49.365Z,100.00
2022-11-01T16:11:21.604Z,100.00
2022-11-01T16:13:51.895Z,100.00
2022-11-01T16:16:21.033Z,100.00
2022-11-01T16:18:49.289Z,100.00
2022-11-01T16:21:30.726Z,100.00
2022-11-01T16:24:06.840Z,100.00
2022-11-01T16:26:54.971Z,100.00
2022-11-01T16:29:39.646Z,100.00
2022-11-01T16:32:10.412Z,100.00
2022-11-01T16:34:38.896Z,100.00
2022-11-01T16:37:19.632Z,100.00
2022-11-01T16:39:48.442Z,100.00
2022-11-01T16:42:20.102Z,100.00
2022-11-01T16:44:53.146Z,100.00
2022-11-01T16:47:22.078Z,100.00
2022-11-01T16:49:51.490Z,100.00
2022-11-01T16:52:22.831Z,100.00
2022-11-01T16:54:55.304Z,100.00
2022-11-01T16:57:27.424Z,100.00
2022-11-01T16:59:59.497Z,100.00
2022-11-01T17:02:29.925Z,100.00
2022-11-01T17:05:09.671Z,100.00
2022-11-01T17:07:38.433Z,100.00
2022-11-01T17:10:18.057Z,100.00
2022-11-01T17:12:48.699Z,100.00
2022-11-01T17:15:20.857Z,100.00
2022-11-01T17:17:49.763Z,100.00
2022-11-01T17:20:26.648Z,100.00
2022-11-01T17:22:57.134Z,100.00
2022-11-01T17:25:30.897Z,100.00
2022-11-01T17:28:05.098Z,100.00
2022-11-01T17:30:35.470Z,100.00
2022-11-01T17:33:04.827Z,100.00
2022-11-01T17:35:34.711Z,100.00
2022-11-01T17:38:10.934Z,100.00
2022-11-01T17:40:45.618Z,100.00
2022-11-01T17:43:21.457Z,100.00
2022-11-01T17:45:51.957Z,100.00
2022-11-01T17:48:21.492Z,100.00
2022-11-01T17:50:54.177Z,100.00
2022-11-01T17:53:24.112Z,100.00
2022-11-01T17:56:00.037Z,100.00
2022-11-01T17:58:32.845Z,100.00
2022-11-01T18:01:08.485Z,100.00
2022-11-01T18:03:38.324Z,100.00
2022-11-01T18:06:13.860Z,100.00
2022-11-01T18:08:50.225Z,100.00
2022-11-01T18:11:33.077Z,100.00
2022-11-01T18:14:19.938Z,100.00
2022-11-01T18:16:51.932Z,100.00
2022-11-01T18:20:09.564Z,100.00
2022-11-01T18:22:50.343Z,100.00
2022-11-01T18:25:28.497Z,100.00
2022-11-01T18:27:58.896Z,100.00
2022-11-01T18:30:30.028Z,100.00
2022-11-01T18:33:03.210Z,100.00
2022-11-01T18:35:35.703Z,100.00
2022-11-01T18:38:15.004Z,100.00
2022-11-01T18:40:57.312Z,100.00
2022-11-01T18:43:30.401Z,100.00
2022-11-01T18:46:23.973Z,100.00
2022-11-01T18:48:56.784Z,100.00
2022-11-01T18:51:32.272Z,100.00
2022-11-01T18:54:24.085Z,100.00
2022-11-01T18:56:59.006Z,100.00
2022-11-01T18:59:31.274Z,100.00
2022-11-01T19:02:04.928Z,100.00
2022-11-01T19:04:36.873Z,100.00
2022-11-01T19:07:13.572Z,100.00
2022-11-01T19:09:46.263Z,100.00
2022-11-01T19:12:21.669Z,100.00
2022-11-01T19:14:58.211Z,100.00
2022-11-01T19:17:34.817Z,100.00
2022-11-01T19:20:05.893Z,100.00
2022-11-01T19:22:40.563Z,100.00
2022-11-01T19:25:19.522Z,100.00
2022-11-01T19:27:51.231Z,100.00
2022-11-01T19:30:26.269Z,100.00
2022-11-01T19:32:59.426Z,100.00
2022-11-01T19:35:32.063Z,100.00
2022-11-01T19:38:02.579Z,100.00
2022-11-01T19:40:34.543Z,100.00
2022-11-01T19:43:12.544Z,100.00
2022-11-01T19:45:48.086Z,100.00
2022-11-01T19:48:24.259Z,100.00
2022-11-01T19:50:54.725Z,100.00
2022-11-01T19:53:28.456Z,100.00
2022-11-01T19:56:01.985Z,100.00
2022-11-01T19:58:53.479Z,100.00
2022-11-01T20:01:36.574Z,100.00
2022-11-01T20:04:16.055Z,100.00
2022-11-01T20:06:54.278Z,100.00
2022-11-01T20:09:27.705Z,100.00
2022-11-01T20:11:58.625Z,100.00
2022-11-01T20:14:29.858Z,100.00
2022-11-01T20:16:59.483Z,100.00
2022-11-01T20:19:31.773Z,100.00
2022-11-01T20:22:03.014Z,100.00
2022-11-01T20:24:35.195Z,100.00
2022-11-01T20:27:07.855Z,100.00
2022-11-01T20:29:38.028Z,100.00
2022-11-01T20:32:07.663Z,100.00
2022-11-01T20:34:39.438Z,100.00
2022-11-01T20:40:05.847Z,100.00
2022-11-01T20:42:35.445Z,100.00
2022-11-01T20:45:05.803Z,100.00
2022-11-01T20:47:35.560Z,100.00
2022-11-01T20:50:10.172Z,100.00
2022-11-01T20:52:40.576Z,100.00
2022-11-01T20:55:12.121Z,100.00
2022-11-01T20:57:42.898Z,100.00
2022-11-01T21:00:16.257Z,100.00
2022-11-01T21:02:46.139Z,100.00
2022-11-01T21:05:23.788Z,100.00
2022-11-01T21:07:56.169Z,100.00
2022-11-01T21:10:32.286Z,100.00
2022-11-01T21:13:03.605Z,100.00
2022-11-01T21:15:39.941Z,100.00
2022-11-01T21:18:42.557Z,100.00
2022-11-01T21:21:31.039Z,100.00
2022-11-01T21:24:02.810Z,100.00
2022-11-01T21:26:37.383Z,100.00
2022-11-01T21:29:08.975Z,100.00
2022-11-01T21:31:40.506Z,100.00
2022-11-01T21:34:26.170Z,100.00
2022-11-01T21:36:58.083Z,100.00
2022-11-01T21:39:29.905Z,100.00
2022-11-01T21:42:01.302Z,100.00
2022-11-01T21:44:32.136Z,100.00
2022-11-01T21:47:15.415Z,100.00
2022-11-01T21:49:45.194Z,100.00
2022-11-01T21:52:15.331Z,100.00
2022-11-01T21:54:44.911Z,100.00
2022-11-01T21:57:15.263Z,100.00
2022-11-01T21:59:44.199Z,100.00
2022-11-01T22:02:13.907Z,100.00
2022-11-01T22:04:42.396Z,100.00
2022-11-01T22:07:11.234Z,100.00
2022-11-01T22:09:40.934Z,100.00
2022-11-01T22:12:09.362Z,100.00
2022-11-01T22:14:37.623Z,100.00
2022-11-01T22:17:05.918Z,100.00
2022-11-01T22:19:34.269Z,100.00
2022-11-01T22:22:02.569Z,100.00
2022-11-01T22:24:31.200Z,100.00
2022-11-01T22:27:02.232Z,100.00
2022-11-01T22:29:30.455Z,100.00
2022-11-01T22:31:58.797Z,100.00
2022-11-01T22:34:27.098Z,100.00
2022-11-01T22:36:55.679Z,100.00
2022-11-01T22:39:25.233Z,100.00
2022-11-01T22:41:53.889Z,100.00
2022-11-01T22:44:26.814Z,100.00
2022-11-01T22:46:59.126Z,100.00
2022-11-01T22:49:29.193Z,100.00
2022-11-01T22:51:59.534Z,100.00
2022-11-01T22:54:31.603Z,100.00
2022-11-01T22:57:02.841Z,100.00
2022-11-01T22:59:34.387Z,100.00
2022-11-01T23:02:17.520Z,100.00
2022-11-01T23:04:45.859Z,100.00
2022-11-01T23:07:24.022Z,100.00
2022-11-01T23:09:54.576Z,100.00
2022-11-01T23:12:42.594Z,100.00
2022-11-01T23:15:27.561Z,100.00
2022-11-01T23:17:58.970Z,100.00
2022-11-01T23:20:27.312Z,100.00
2022-11-01T23:22:55.583Z,100.00
2022-11-01T23:25:24.068Z,100.00
2022-11-01T23:27:52.441Z,100.00
2022-11-01T23:30:22.569Z,100.00
2022-11-01T23:32:50.813Z,100.00
2022-11-01T23:35:22.440Z,100.00
2022-11-01T23:37:51.494Z,100.00
2022-11-01T23:40:22.058Z,100.00
2022-11-01T23:42:50.746Z,100.00
2022-11-01T23:45:29.920Z,100.00
2022-11-01T23:47:58.615Z,100.00
2022-11-01T23:50:29.435Z,100.00
2022-11-01T23:52:59.919Z,100.00
2022-11-01T23:55:30.175Z,100.00
2022-11-01T23:58:00.866Z,100.00
